createdAt,value
2019-04-22T00:01:50.344Z,4.72
2019-04-22T00:04:33.693Z,5.00
2019-04-22T00:07:09.805Z,5.50
2019-04-22T00:09:48.550Z,5.40
2019-04-22T00:12:22.224Z,5.00
2019-04-22T00:14:40.647Z,5.10
2019-04-22T00:17:23.314Z,5.03
2019-04-22T00:19:55.505Z,5.22
2019-04-22T00:24:46.821Z,5.20
2019-04-22T00:27:20.335Z,5.00
2019-04-22T00:30:00.582Z,4.67
2019-04-22T00:32:19.407Z,5.15
2019-04-22T00:34:53.809Z,5.12
2019-04-22T00:37:25.221Z,5.15
2019-04-22T00:39:51.357Z,5.50
2019-04-22T00:42:33.307Z,4.22
2019-04-22T00:45:00.732Z,4.83
2019-04-22T00:47:41.105Z,5.25
2019-04-22T00:50:15.887Z,5.42
2019-04-22T00:52:34.298Z,4.53
2019-04-22T00:55:06.076Z,4.75
2019-04-22T00:57:35.539Z,4.45
2019-04-22T01:00:07.230Z,5.22
2019-04-22T01:02:34.758Z,4.03
2019-04-22T01:05:07.940Z,4.80
2019-04-22T01:07:30.469Z,5.35
2019-04-22T01:10:07.601Z,4.60
2019-04-22T01:12:31.878Z,4.80
2019-04-22T01:15:07.079Z,5.33
2019-04-22T01:17:39.723Z,4.50
2019-04-22T01:20:17.553Z,5.00
2019-04-22T01:22:34.919Z,4.92
2019-04-22T01:25:08.026Z,5.25
2019-04-22T01:27:31.063Z,4.70
2019-04-22T01:30:00.856Z,4.62
2019-04-22T01:32:26.088Z,4.70
2019-04-22T01:35:03.473Z,4.40
2019-04-22T01:37:34.610Z,4.33
2019-04-22T01:40:19.883Z,4.62
2019-04-22T01:42:54.421Z,4.65
2019-04-22T01:45:22.570Z,4.72
2019-04-22T01:47:43.725Z,4.17
2019-04-22T01:50:21.403Z,5.00
2019-04-22T01:52:52.197Z,4.80
2019-04-22T01:57:47.698Z,4.25
2019-04-22T02:00:11.275Z,5.20
2019-04-22T02:02:54.945Z,4.78
2019-04-22T02:07:49.288Z,4.97
2019-04-22T02:10:30.702Z,4.72
2019-04-22T02:12:53.221Z,4.70
2019-04-22T02:15:23.350Z,5.42
2019-04-22T02:18:01.283Z,5.80
2019-04-22T02:20:29.621Z,5.37
2019-04-22T02:23:40.223Z,5.72
2019-04-22T02:25:50.995Z,5.62
2019-04-22T02:28:26.043Z,5.03
2019-04-22T02:31:16.033Z,5.60
2019-04-22T02:33:51.326Z,5.90
2019-04-22T02:38:46.638Z,5.35
2019-04-22T02:41:15.702Z,5.58
2019-04-22T02:43:49.287Z,5.03
2019-04-22T02:48:50.310Z,5.83
2019-04-22T02:51:04.305Z,5.30
2019-04-22T02:54:11.940Z,4.75
2019-04-22T02:56:13.377Z,5.58
2019-04-22T02:58:46.999Z,5.47
2019-04-22T03:06:16.534Z,5.85
2019-04-22T03:08:41.478Z,6.53
2019-04-22T03:14:37.596Z,5.95
2019-04-22T03:17:13.503Z,6.25
2019-04-22T03:19:50.505Z,5.70
2019-04-22T03:22:12.481Z,6.33
2019-04-22T03:27:07.459Z,6.37
2019-04-22T03:35:31.665Z,6.05
2019-04-22T03:40:48.202Z,5.87
2019-04-22T03:43:06.826Z,5.42
2019-04-22T03:45:28.268Z,6.10
2019-04-22T03:50:38.798Z,5.70
2019-04-22T03:55:29.013Z,6.20
2019-04-22T04:00:47.732Z,5.97
2019-04-22T04:05:49.967Z,5.45
2019-04-22T04:08:14.676Z,6.00
2019-04-22T04:18:30.671Z,5.85
2019-04-22T04:23:37.925Z,5.60
2019-04-22T04:25:46.799Z,6.00
2019-04-22T04:30:57.476Z,5.45
2019-04-22T04:38:21.152Z,5.17
2019-04-22T04:43:30.016Z,5.22
2019-04-22T04:46:02.884Z,5.65
2019-04-22T04:48:32.312Z,6.17
2019-04-22T04:51:11.150Z,5.17
2019-04-22T04:53:27.156Z,5.55
2019-04-22T04:55:59.957Z,5.50
2019-04-22T04:58:36.867Z,4.95
2019-04-22T05:03:39.949Z,5.42
2019-04-22T05:06:01.359Z,4.97
2019-04-22T05:08:54.371Z,4.65
2019-04-22T05:12:03.699Z,4.87
2019-04-22T05:14:17.728Z,3.90
2019-04-22T05:19:20.234Z,4.25
2019-04-22T05:21:53.050Z,4.50
2019-04-22T05:24:34.452Z,4.75
2019-04-22T05:26:57.065Z,4.42
2019-04-22T05:29:35.104Z,4.53
2019-04-22T05:34:22.798Z,4.62
2019-04-22T05:36:58.891Z,4.37
2019-04-22T05:39:25.003Z,4.40
2019-04-22T05:41:56.070Z,4.83
2019-04-22T05:44:29.399Z,4.65
2019-04-22T05:46:53.212Z,4.40
2019-04-22T05:51:54.639Z,4.50
2019-04-22T05:54:28.530Z,4.20
2019-04-22T05:57:03.880Z,4.03
2019-04-22T05:59:44.551Z,4.28
2019-04-22T06:04:48.036Z,4.00
2019-04-22T06:07:13.701Z,3.90
2019-04-22T06:09:43.614Z,4.33
2019-04-22T06:12:12.312Z,3.83
2019-04-22T06:14:47.945Z,3.67
2019-04-22T06:17:24.867Z,4.15
2019-04-22T06:19:50.521Z,3.83
2019-04-22T06:22:34.366Z,3.47
2019-04-22T06:24:58.975Z,4.12
2019-04-22T06:29:46.169Z,4.03
2019-04-22T06:35:00.420Z,4.30
2019-04-22T06:37:27.980Z,4.00
2019-04-22T06:39:51.015Z,4.15
2019-04-22T06:42:28.561Z,4.40
2019-04-22T06:45:02.765Z,4.90
2019-04-22T06:47:40.084Z,3.98
2019-04-22T06:49:57.029Z,4.03
2019-04-22T06:52:22.614Z,4.10
2019-04-22T06:54:59.406Z,4.37
2019-04-22T06:57:25.565Z,3.70
2019-04-22T07:00:00.465Z,3.87
2019-04-22T07:02:32.159Z,4.25
2019-04-22T07:05:02.138Z,3.92
2019-04-22T07:07:26.769Z,3.95
2019-04-22T07:10:06.625Z,3.85
2019-04-22T07:12:29.145Z,4.10
2019-04-22T07:15:08.518Z,3.90
2019-04-22T07:17:38.075Z,3.98
2019-04-22T07:20:04.307Z,3.85
2019-04-22T07:22:33.787Z,3.62
2019-04-22T07:25:03.134Z,4.17
2019-04-22T07:27:34.210Z,3.95
2019-04-22T07:30:09.339Z,3.77
2019-04-22T07:33:00.663Z,3.87
2019-04-22T07:35:23.934Z,4.00
2019-04-22T07:38:05.771Z,4.47
2019-04-22T07:40:17.160Z,4.37
2019-04-22T07:42:48.170Z,4.35
2019-04-22T07:45:19.797Z,4.40
2019-04-22T07:47:52.097Z,5.40
2019-04-22T07:52:57.090Z,4.45
2019-04-22T07:55:17.837Z,5.20
2019-04-22T07:57:58.947Z,5.45
2019-04-22T08:00:29.217Z,4.78
2019-04-22T08:02:59.156Z,5.35
2019-04-22T08:05:39.316Z,5.12
2019-04-22T08:08:09.553Z,6.47
2019-04-22T08:13:07.365Z,4.78
2019-04-22T08:15:42.041Z,5.10
2019-04-22T08:18:12.796Z,5.85
2019-04-22T08:20:41.539Z,5.55
2019-04-22T08:23:09.625Z,6.47
2019-04-22T08:25:43.790Z,5.75
2019-04-22T08:30:49.175Z,6.22
2019-04-22T08:33:22.059Z,5.90
2019-04-22T08:38:25.369Z,5.60
2019-04-22T08:41:31.867Z,5.37
2019-04-22T08:46:25.594Z,5.28
2019-04-22T08:48:52.902Z,5.10
2019-04-22T08:51:25.311Z,5.20
2019-04-22T08:53:59.886Z,5.25
2019-04-22T08:56:29.845Z,5.70
2019-04-22T08:58:57.311Z,5.10
2019-04-22T09:01:44.951Z,5.47
2019-04-22T09:06:58.128Z,5.55
2019-04-22T09:09:09.755Z,6.35
2019-04-22T09:11:41.454Z,5.42
2019-04-22T09:14:14.014Z,5.15
2019-04-22T09:16:42.804Z,5.80
2019-04-22T09:21:43.441Z,5.05
2019-04-22T09:24:10.516Z,4.60
2019-04-22T09:26:43.616Z,4.85
2019-04-22T09:29:23.583Z,4.42
2019-04-22T09:34:18.435Z,4.90
2019-04-22T09:36:55.454Z,4.97
2019-04-22T09:39:28.286Z,4.50
2019-04-22T09:44:28.194Z,4.80
2019-04-22T09:46:52.430Z,5.05
2019-04-22T09:49:26.662Z,4.40
2019-04-22T09:51:58.649Z,4.22
2019-04-22T09:54:29.705Z,3.95
2019-04-22T09:56:56.444Z,4.15
2019-04-22T09:59:32.967Z,4.03
2019-04-22T10:02:18.357Z,3.80
2019-04-22T10:04:34.655Z,4.47
2019-04-22T10:07:01.050Z,4.10
2019-04-22T10:09:49.538Z,4.40
2019-04-22T10:12:02.138Z,4.37
2019-04-22T10:14:38.481Z,3.95
2019-04-22T10:17:06.708Z,4.28
2019-04-22T10:19:41.173Z,3.55
2019-04-22T10:24:44.994Z,4.20
2019-04-22T10:27:19.042Z,4.15
2019-04-22T10:29:54.171Z,4.65
2019-04-22T10:32:46.298Z,4.10
2019-04-22T10:34:44.007Z,4.20
2019-04-22T10:37:11.276Z,4.10
2019-04-22T10:39:46.111Z,3.90
2019-04-22T10:42:11.382Z,4.20
2019-04-22T10:44:41.586Z,4.10
2019-04-22T10:47:11.893Z,4.58
2019-04-22T10:49:40.631Z,4.08
2019-04-22T10:52:10.926Z,4.45
2019-04-22T10:54:41.210Z,4.15
2019-04-22T10:57:10.868Z,4.28
2019-04-22T10:59:40.725Z,4.40
2019-04-22T11:02:09.793Z,4.17
2019-04-22T11:04:38.701Z,4.40
2019-04-22T11:07:10.825Z,4.10
2019-04-22T11:09:50.486Z,3.92
2019-04-22T11:12:13.671Z,3.65
2019-04-22T11:14:43.107Z,3.58
2019-04-22T11:17:09.382Z,3.95
2019-04-22T11:19:39.343Z,3.70
2019-04-22T11:22:16.889Z,4.00
2019-04-22T11:24:38.958Z,3.80
2019-04-22T11:27:08.355Z,4.15
2019-04-22T11:29:37.472Z,4.70
2019-04-22T11:32:06.542Z,3.70
2019-04-22T11:34:37.485Z,4.20
2019-04-22T11:37:06.353Z,4.00
2019-04-22T11:39:36.706Z,3.40
2019-04-22T11:42:05.672Z,4.10
2019-04-22T11:44:35.292Z,3.80
2019-04-22T11:47:05.351Z,3.95
2019-04-22T11:49:34.316Z,3.85
2019-04-22T11:52:05.496Z,3.72
2019-04-22T11:54:34.960Z,4.10
2019-04-22T11:57:05.327Z,3.85
2019-04-22T11:59:34.365Z,3.30
2019-04-22T12:02:04.632Z,3.15
2019-04-22T12:04:33.961Z,3.90
2019-04-22T12:07:04.260Z,3.50
2019-04-22T12:09:33.531Z,3.92
2019-04-22T12:12:03.494Z,3.58
2019-04-22T12:14:32.251Z,4.00
2019-04-22T12:17:03.600Z,4.08
2019-04-22T12:19:33.442Z,4.40
2019-04-22T12:22:02.941Z,4.33
2019-04-22T12:24:34.232Z,3.90
2019-04-22T12:27:04.324Z,4.22
2019-04-22T12:29:33.224Z,4.30
2019-04-22T12:32:03.224Z,3.90
2019-04-22T12:34:33.256Z,4.03
2019-04-22T12:37:02.660Z,3.90
2019-04-22T12:39:31.690Z,3.67
2019-04-22T12:42:00.444Z,3.80
2019-04-22T12:44:30.487Z,3.72
2019-04-22T12:47:01.738Z,4.90
2019-04-22T12:49:29.950Z,3.90
2019-04-22T12:51:59.012Z,4.40
2019-04-22T12:54:29.064Z,3.70
2019-04-22T12:56:59.791Z,3.90
2019-04-22T12:59:29.792Z,3.80
2019-04-22T13:01:58.691Z,3.67
2019-04-22T13:04:27.981Z,3.80
2019-04-22T13:06:57.679Z,4.03
2019-04-22T13:09:27.489Z,3.90
2019-04-22T13:11:57.157Z,3.83
2019-04-22T13:14:27.228Z,3.27
2019-04-22T13:16:56.004Z,3.50
2019-04-22T13:19:26.521Z,3.37
2019-04-22T13:21:56.558Z,3.50
2019-04-22T13:24:25.955Z,3.30
2019-04-22T13:26:55.101Z,3.37
2019-04-22T13:29:27.585Z,3.50
2019-04-22T13:31:56.387Z,3.30
2019-04-22T13:34:31.629Z,3.25
2019-04-22T13:36:56.736Z,3.25
2019-04-22T13:39:27.147Z,3.87
2019-04-22T13:42:01.644Z,3.20
2019-04-22T13:44:27.988Z,2.92
2019-04-22T13:47:14.543Z,3.12
2019-04-22T13:49:59.292Z,3.33
2019-04-22T13:55:05.724Z,3.17
2019-04-22T13:57:19.985Z,3.10
2019-04-22T13:59:38.108Z,2.85
2019-04-22T14:02:01.889Z,2.77
2019-04-22T14:04:32.795Z,3.30
2019-04-22T14:07:02.798Z,3.00
2019-04-22T14:09:33.585Z,3.37
2019-04-22T14:12:05.709Z,3.05
2019-04-22T14:14:33.719Z,2.98
2019-04-22T14:17:03.003Z,3.17
2019-04-22T14:19:32.247Z,3.17
2019-04-22T14:22:01.959Z,3.08
2019-04-22T14:24:30.748Z,2.80
2019-04-22T14:27:15.170Z,3.25
2019-04-22T14:29:33.569Z,3.00
2019-04-22T14:34:38.399Z,3.52
2019-04-22T14:37:03.556Z,3.20
2019-04-22T14:39:33.861Z,3.33
2019-04-22T14:42:21.692Z,3.12
2019-04-22T14:44:12.632Z,3.62
2019-04-22T14:47:25.652Z,3.58
2019-04-22T14:49:57.442Z,3.35
2019-04-22T14:52:27.797Z,3.30
2019-04-22T14:54:49.258Z,3.15
2019-04-22T14:57:07.210Z,3.12
2019-04-22T14:59:37.486Z,3.22
2019-04-22T15:02:07.591Z,3.15
2019-04-22T15:04:37.301Z,3.58
2019-04-22T15:07:07.349Z,2.90
2019-04-22T15:09:37.823Z,3.25
2019-04-22T15:12:16.417Z,3.30
2019-04-22T15:14:37.660Z,2.70
2019-04-22T15:17:24.959Z,2.85
2019-04-22T15:19:56.072Z,3.02
2019-04-22T15:22:26.297Z,2.60
2019-04-22T15:24:56.573Z,2.90
2019-04-22T15:27:29.605Z,2.80
2019-04-22T15:29:59.182Z,2.67
2019-04-22T15:32:29.357Z,2.60
2019-04-22T15:34:59.600Z,2.83
2019-04-22T15:37:31.094Z,2.65
2019-04-22T15:40:00.561Z,2.50
2019-04-22T15:42:35.594Z,2.50
2019-04-22T15:45:00.017Z,2.22
2019-04-22T15:47:29.283Z,2.27
2019-04-22T15:50:00.369Z,2.10
2019-04-22T15:52:36.280Z,2.67
2019-04-22T15:55:00.658Z,2.12
2019-04-22T15:57:30.748Z,2.50
2019-04-22T16:00:14.408Z,2.35
2019-04-22T16:02:31.763Z,2.05
2019-04-22T16:05:00.557Z,2.20
2019-04-22T16:07:31.866Z,2.12
2019-04-22T16:10:01.799Z,1.90
2019-04-22T16:12:41.448Z,2.10
2019-04-22T16:15:09.602Z,2.12
2019-04-22T16:17:40.450Z,2.00
2019-04-22T16:20:10.928Z,2.20
2019-04-22T16:22:57.347Z,2.20
2019-04-22T16:25:38.774Z,2.00
2019-04-22T16:28:08.876Z,2.00
2019-04-22T16:30:39.432Z,2.22
2019-04-22T16:33:09.838Z,2.00
2019-04-22T16:35:40.776Z,2.08
2019-04-22T16:38:12.843Z,2.00
2019-04-22T16:40:42.875Z,1.90
2019-04-22T16:43:13.513Z,2.40
2019-04-22T16:45:47.521Z,2.00
2019-04-22T16:48:17.474Z,2.17
2019-04-22T16:50:48.665Z,2.12
2019-04-22T16:53:16.997Z,2.25
2019-04-22T16:55:46.638Z,2.55
2019-04-22T16:58:16.657Z,2.20
2019-04-22T17:00:49.684Z,2.45
2019-04-22T17:03:36.592Z,2.45
2019-04-22T17:06:19.506Z,2.58
2019-04-22T17:08:48.728Z,2.67
2019-04-22T17:11:17.962Z,2.45
2019-04-22T17:13:48.132Z,3.20
2019-04-22T17:16:18.042Z,2.65
2019-04-22T17:18:47.128Z,2.80
2019-04-22T17:21:17.404Z,2.85
2019-04-22T17:23:47.550Z,2.70
2019-04-22T17:26:16.748Z,2.67
2019-04-22T17:28:47.211Z,2.62
2019-04-22T17:31:18.602Z,2.83
2019-04-22T17:33:46.791Z,2.85
2019-04-22T17:36:18.337Z,2.90
2019-04-22T17:38:55.082Z,2.75
2019-04-22T17:41:51.184Z,2.85
2019-04-22T17:44:41.397Z,2.80
2019-04-22T17:46:58.529Z,3.33
2019-04-22T17:49:50.279Z,2.92
2019-04-22T17:52:23.175Z,2.65
2019-04-22T17:54:50.275Z,2.75
2019-04-22T17:57:22.406Z,2.80
2019-04-22T17:59:51.811Z,2.98
2019-04-22T18:02:22.665Z,3.22
2019-04-22T18:04:46.001Z,2.90
2019-04-22T18:07:29.603Z,2.90
2019-04-22T18:12:33.528Z,2.77
2019-04-22T18:15:08.898Z,3.05
2019-04-22T18:17:29.109Z,2.90
2019-04-22T18:19:54.558Z,2.98
2019-04-22T18:22:21.780Z,2.83
2019-04-22T18:24:55.754Z,3.10
2019-04-22T18:27:43.007Z,3.05
2019-04-22T18:29:57.174Z,3.12
2019-04-22T18:32:23.066Z,3.67
2019-04-22T18:34:53.051Z,2.50
2019-04-22T18:37:25.204Z,3.17
2019-04-22T18:40:02.228Z,3.00
2019-04-22T18:42:26.803Z,3.10
2019-04-22T18:45:21.724Z,2.80
2019-04-22T18:47:32.323Z,2.83
2019-04-22T18:50:03.027Z,3.10
2019-04-22T18:52:48.764Z,2.80
2019-04-22T18:55:30.980Z,2.80
2019-04-22T18:58:02.763Z,2.80
2019-04-22T19:00:23.440Z,2.95
2019-04-22T19:02:59.038Z,3.22
2019-04-22T19:05:36.895Z,2.67
2019-04-22T19:08:23.110Z,2.62
2019-04-22T19:15:53.842Z,2.90
2019-04-22T19:18:25.655Z,3.10
2019-04-22T19:20:51.330Z,2.83
2019-04-22T19:23:23.542Z,2.90
2019-04-22T19:25:47.218Z,3.00
2019-04-22T19:28:31.232Z,2.62
2019-04-22T19:31:02.642Z,3.10
2019-04-22T19:33:28.775Z,2.92
2019-04-22T19:35:59.921Z,13.85
2019-04-22T19:38:16.528Z,2.98
2019-04-22T19:41:07.043Z,2.65
2019-04-22T19:43:33.216Z,2.98
2019-04-22T19:45:58.933Z,2.95
2019-04-22T19:48:39.674Z,3.27
2019-04-22T19:51:11.107Z,3.08
2019-04-22T19:53:35.658Z,3.17
2019-04-22T19:55:59.850Z,2.98
2019-04-22T19:58:34.903Z,3.08
2019-04-22T20:01:09.140Z,2.90
2019-04-22T20:03:58.092Z,3.17
2019-04-22T20:06:33.663Z,3.55
2019-04-22T20:09:05.787Z,3.05
2019-04-22T20:11:37.610Z,3.20
2019-04-22T20:14:06.351Z,3.20
2019-04-22T20:16:32.456Z,3.00
2019-04-22T20:19:15.561Z,3.35
2019-04-22T20:21:40.318Z,3.60
2019-04-22T20:23:59.192Z,3.50
2019-04-22T20:26:45.555Z,3.40
2019-04-22T20:29:13.099Z,3.55
2019-04-22T20:31:48.585Z,3.50
2019-04-22T20:34:21.517Z,3.50
2019-04-22T20:36:58.054Z,4.15
2019-04-22T20:39:15.058Z,3.67
2019-04-22T20:41:41.105Z,3.62
2019-04-22T20:44:19.047Z,3.83
2019-04-22T20:46:44.769Z,3.65
2019-04-22T20:49:25.686Z,3.70
2019-04-22T20:52:00.284Z,3.87
2019-04-22T20:54:23.244Z,3.95
2019-04-22T20:56:51.832Z,4.10
2019-04-22T20:59:23.750Z,4.00
2019-04-22T21:01:56.682Z,4.15
2019-04-22T21:04:19.638Z,3.72
2019-04-22T21:06:52.790Z,3.83
2019-04-22T21:09:27.378Z,4.15
2019-04-22T21:11:57.806Z,3.90
2019-04-22T21:14:24.492Z,4.55
2019-04-22T21:17:10.173Z,4.30
2019-04-22T21:19:40.371Z,4.50
2019-04-22T21:22:10.883Z,4.33
2019-04-22T21:24:34.474Z,4.55
2019-04-22T21:27:17.010Z,4.20
2019-04-22T21:29:36.330Z,4.53
2019-04-22T21:32:13.615Z,4.60
2019-04-22T21:34:50.978Z,4.37
2019-04-22T21:37:22.203Z,4.83
2019-04-22T21:39:40.730Z,4.55
2019-04-22T21:42:14.339Z,4.53
2019-04-22T21:44:45.678Z,4.10
2019-04-22T21:47:25.628Z,5.17
2019-04-22T21:49:51.414Z,4.60
2019-04-22T21:52:24.506Z,4.75
2019-04-22T21:54:57.002Z,4.70
2019-04-22T21:57:43.797Z,4.70
2019-04-22T22:00:19.947Z,4.80
2019-04-22T22:02:47.169Z,4.37
2019-04-22T22:05:07.533Z,5.20
2019-04-22T22:07:25.633Z,4.50
2019-04-22T22:10:09.870Z,4.47
2019-04-22T22:12:42.646Z,4.78
2019-04-22T22:15:16.285Z,5.50
2019-04-22T22:17:35.380Z,4.95
2019-04-22T22:20:06.129Z,4.80
2019-04-22T22:25:14.386Z,5.08
2019-04-22T22:27:42.120Z,5.30
2019-04-22T22:30:38.806Z,4.85
2019-04-22T22:32:51.404Z,4.65
2019-04-22T22:35:20.976Z,5.33
2019-04-22T22:37:51.790Z,5.10
2019-04-22T22:40:07.421Z,5.00
2019-04-22T22:42:38.099Z,4.67
2019-04-22T22:45:16.861Z,5.03
2019-04-22T22:47:53.612Z,5.20
2019-04-22T22:50:27.470Z,4.62
2019-04-22T22:53:16.991Z,5.47
2019-04-22T22:55:35.837Z,4.55
2019-04-22T22:58:04.122Z,5.17
2019-04-22T23:00:31.296Z,5.37
2019-04-22T23:03:23.196Z,5.10
2019-04-22T23:05:37.724Z,5.50
2019-04-22T23:08:15.727Z,5.33
2019-04-22T23:10:50.756Z,5.62
2019-04-22T23:13:14.687Z,5.20
2019-04-22T23:15:39.497Z,5.60
2019-04-22T23:17:56.181Z,5.55
2019-04-22T23:20:31.013Z,5.35
2019-04-22T23:23:22.009Z,5.75
2019-04-22T23:25:54.704Z,5.85
2019-04-22T23:28:23.498Z,5.25
2019-04-22T23:31:07.507Z,5.53
2019-04-22T23:33:46.338Z,5.45
2019-04-22T23:36:13.697Z,5.42
2019-04-22T23:38:59.225Z,5.37
2019-04-22T23:41:46.288Z,5.42
2019-04-22T23:46:39.647Z,5.70
2019-04-22T23:49:10.186Z,5.15
2019-04-22T23:51:51.170Z,5.53
2019-04-22T23:54:18.672Z,6.05
2019-04-22T23:56:43.695Z,5.47
